Time;durP1;ratioP1;P1;durP2;ratioP2;P2;SDS_P1;SDS_P2;PMS_P1;PMS_P2;Temp;Humidity;BMP_temperature;BMP_pressure;BME280_temperature;BME280_humidity;BME280_pressure;Samples;Min_cycle;Max_cycle;Signal;HPM_P1;HPM_P2
2021/12/21 00:01:36;;;;;;;13.95;7.38;;;;;;;-0.10;94.50;102136.59;7393545;19;20370;-65
2021/12/21 00:04:04;;;;;;;12.85;6.45;;;;;;;-0.08;94.28;102145.25;7395309;19;20014;-65
2021/12/21 00:06:32;;;;;;;17.13;7.40;;;;;;;-0.07;94.58;102135.84;7394530;19;20018;-66
2021/12/21 00:09:00;;;;;;;13.90;7.72;;;;;;;-0.07;94.26;102147.03;7395430;19;20362;-66
2021/12/21 00:11:31;;;;;;;19.00;7.55;;;;;;;-0.06;94.36;102143.66;7393665;19;20034;-66
2021/12/21 00:14:13;;;;;;;11.45;6.45;;;;;;;-0.04;94.45;102134.28;7393115;19;20015;-66
2021/12/21 00:17:02;;;;;;;12.50;7.15;;;;;;;-0.03;94.38;102133.44;7395602;19;20015;-66
2021/12/21 00:20:05;;;;;;;14.90;6.80;;;;;;;-0.03;94.43;102130.00;7395473;19;20018;-65
2021/12/21 00:23:07;;;;;;;10.73;6.30;;;;;;;-0.03;94.43;102130.88;7394661;19;20033;-65
2021/12/21 00:25:30;;;;;;;20.38;7.00;;;;;;;-0.04;94.13;102131.72;7392736;19;20014;-65
2021/12/21 00:28:02;;;;;;;11.25;7.18;;;;;;;-0.04;94.22;102126.53;7394916;19;20040;-65
2021/12/21 00:30:31;;;;;;;18.30;8.18;;;;;;;-0.04;94.17;102125.66;7395278;19;20014;-65
2021/12/21 00:32:59;;;;;;;14.90;7.53;;;;;;;-0.05;94.27;102129.03;7394393;19;20514;-65
2021/12/21 00:35:27;;;;;;;11.93;6.60;;;;;;;-0.05;94.12;102126.44;7393300;19;20023;-65
2021/12/21 00:37:56;;;;;;;12.63;6.35;;;;;;;-0.07;94.14;102131.56;7394430;19;20367;-65
2021/12/21 00:40:25;;;;;;;18.35;6.53;;;;;;;-0.07;94.17;102131.56;7394561;19;20018;-65
2021/12/21 00:42:53;;;;;;;14.00;6.53;;;;;;;-0.06;94.14;102135.03;7394555;19;20011;-65
2021/12/21 00:45:23;;;;;;;16.50;6.45;;;;;;;-0.07;94.26;102131.56;7393255;19;20031;-65
2021/12/21 00:47:52;;;;;;;15.55;6.72;;;;;;;-0.08;94.36;102128.91;7392903;19;20015;-65
2021/12/21 00:50:22;;;;;;;19.40;7.50;;;;;;;-0.08;94.42;102126.34;7394425;19;20044;-65
2021/12/21 00:52:56;;;;;;;18.10;7.70;;;;;;;-0.08;94.41;102128.91;7394304;19;20018;-65
2021/12/21 00:55:25;;;;;;;12.90;7.88;;;;;;;-0.11;94.46;102115.91;7392132;19;20022;-72
2021/12/21 00:57:53;;;;;;;15.95;7.28;;;;;;;-0.11;94.13;102121.91;7393790;19;20494;-67
2021/12/21 01:00:24;;;;;;;16.80;7.78;;;;;;;-0.11;94.08;102123.63;7394145;19;20018;-66
2021/12/21 01:02:53;;;;;;;18.48;7.60;;;;;;;-0.14;94.00;102126.06;7394430;19;20032;-66
2021/12/21 01:05:29;;;;;;;17.52;7.60;;;;;;;-0.14;94.02;102123.47;7392584;19;20023;-66
2021/12/21 01:08:00;;;;;;;17.40;9.40;;;;;;;-0.18;94.11;102117.28;7392265;19;20022;-66
2021/12/21 01:13:28;;;;;;;15.63;7.70;;;;;;;-0.18;94.23;102114.72;7397714;19;20077;-65
2021/12/21 01:16:14;;;;;;;16.20;7.72;;;;;;;-0.18;94.48;102104.41;7398746;19;20050;-66
2021/12/21 01:18:56;;;;;;;19.17;8.45;;;;;;;-0.19;94.28;102100.94;7398894;19;20025;-65
2021/12/21 01:21:29;;;;;;;18.13;8.35;;;;;;;-0.19;94.31;102097.47;7401072;19;20015;-66
2021/12/21 01:24:25;;;;;;;14.90;7.78;;;;;;;-0.18;94.40;102099.25;7398684;19;20018;-66
2021/12/21 01:27:13;;;;;;;19.92;7.82;;;;;;;-0.18;94.36;102097.56;7398503;19;20023;-66
2021/12/21 01:29:50;;;;;;;26.63;8.45;;;;;;;-0.18;94.47;102105.31;7398141;19;20017;-65
2021/12/21 01:32:32;;;;;;;21.58;8.45;;;;;;;-0.17;94.55;102103.59;7400972;19;20018;-67
2021/12/21 01:35:02;;;;;;;14.45;8.00;;;;;;;-0.16;94.62;102105.34;7399315;19;20039;-66
2021/12/21 01:37:42;;;;;;;15.48;7.72;;;;;;;-0.17;94.62;102096.72;7400317;19;20035;-66
2021/12/21 01:40:22;;;;;;;16.92;7.43;;;;;;;-0.19;94.41;102087.16;7397436;19;20375;-66
2021/12/21 01:51:07;;;;;;;19.10;8.85;;;;;;;-0.21;94.33;102068.16;7400055;19;20039;-67
2021/12/21 01:53:36;;;;;;;18.50;7.93;;;;;;;-0.22;93.92;102068.97;7397608;19;20031;-67
2021/12/21 01:56:05;;;;;;;18.98;8.30;;;;;;;-0.27;94.25;102050.69;7397403;19;20401;-67
2021/12/21 01:58:37;;;;;;;16.20;8.45;;;;;;;-0.28;94.31;102046.34;7397249;19;20027;-67
2021/12/21 02:01:06;;;;;;;21.17;9.00;;;;;;;-0.29;94.23;102054.03;7397308;19;20422;-67
2021/12/21 02:03:36;;;;;;;19.17;8.60;;;;;;;-0.31;94.32;102051.41;7397189;19;20018;-67
2021/12/21 02:06:05;;;;;;;19.95;8.80;;;;;;;-0.32;94.67;102059.06;7396958;19;20022;-67
2021/12/21 02:08:34;;;;;;;21.40;8.57;;;;;;;-0.32;94.76;102061.66;7399297;19;20022;-67
2021/12/21 02:11:04;;;;;;;23.35;9.23;;;;;;;-0.33;94.71;102053.00;7399238;19;20018;-67
2021/12/21 02:13:36;;;;;;;18.27;9.15;;;;;;;-0.31;94.91;102047.94;7400932;19;20021;-68
2021/12/21 02:16:05;;;;;;;16.10;8.15;;;;;;;-0.31;94.62;102087.50;7396922;19;20041;-68
2021/12/21 02:19:03;;;;;;;19.83;11.60;;;;;;;-0.36;94.59;102094.16;7399076;19;20070;-68
2021/12/21 02:21:39;;;;;;;23.02;10.68;;;;;;;-0.37;94.62;102089.81;7397522;19;20088;-68
2021/12/21 02:24:13;;;;;;;18.63;10.45;;;;;;;-0.36;94.90;102091.56;7396571;19;20030;-68
2021/12/21 02:27:06;;;;;;;20.90;11.20;;;;;;;-0.36;95.08;102091.56;7396569;19;20022;-68
2021/12/21 02:29:35;;;;;;;24.33;11.23;;;;;;;-0.34;94.95;102095.13;7398882;19;20029;-68
2021/12/21 02:32:04;;;;;;;21.17;11.38;;;;;;;-0.35;94.88;102085.59;7398579;19;20011;-68
2021/12/21 02:34:33;;;;;;;24.02;10.98;;;;;;;-0.32;95.23;102083.16;7397703;19;20019;-68
2021/12/21 02:37:03;;;;;;;26.45;12.25;;;;;;;-0.31;95.28;102072.03;7396464;19;20022;-68
2021/12/21 02:39:32;;;;;;;22.15;11.95;;;;;;;-0.28;95.20;102064.41;7398485;19;20027;-68
2021/12/21 02:42:00;;;;;;;27.25;12.60;;;;;;;-0.26;95.23;102067.09;7398245;19;20010;-68
2021/12/21 02:44:28;;;;;;;26.75;12.05;;;;;;;-0.25;95.40;102059.41;7397484;19;20018;-68
2021/12/21 02:46:56;;;;;;;19.02;9.70;;;;;;;-0.22;95.44;102064.69;7396003;19;20019;-68
2021/12/21 02:49:24;;;;;;;21.65;10.88;;;;;;;-0.22;95.28;102059.53;7398126;19;20035;-68
2021/12/21 02:51:53;;;;;;;23.35;12.30;;;;;;;-0.19;95.31;102053.63;7397988;19;20036;-68
2021/12/21 02:54:24;;;;;;;21.33;11.15;;;;;;;-0.17;95.49;102054.56;7395805;19;20027;-68
2021/12/21 02:56:52;;;;;;;23.13;11.88;;;;;;;-0.17;95.46;102049.41;7397990;19;20018;-68
2021/12/21 02:59:20;;;;;;;25.05;11.82;;;;;;;-0.14;95.28;102053.81;7397763;19;20018;-68
2021/12/21 03:01:48;;;;;;;18.98;10.35;;;;;;;-0.14;95.43;102048.66;7397599;19;20019;-68
2021/12/21 03:04:17;;;;;;;22.33;12.80;;;;;;;-0.13;95.28;102055.59;7396653;19;20490;-68
2021/12/21 03:07:17;;;;;;;21.65;11.45;;;;;;;-0.12;95.45;102049.63;7395588;19;20031;-68
2021/12/21 03:09:58;;;;;;;22.05;11.57;;;;;;;-0.12;95.19;102047.91;7396950;19;20025;-69
2021/12/21 03:13:52;;;;;;;19.50;10.48;;;;;;;-0.11;95.43;102049.69;7398915;19;20090;-69
2021/12/21 03:15:22;;;;;;;27.17;12.15;;;;;;;-0.13;95.11;102035.81;7396782;19;20025;-69
2021/12/21 03:17:52;;;;;;;19.77;10.73;;;;;;;-0.12;95.31;102042.75;7397392;19;20015;-67
2021/12/21 03:20:21;;;;;;;21.80;10.68;;;;;;;-0.12;95.22;102042.75;7396481;19;20499;-68
2021/12/21 03:22:49;;;;;;;19.70;10.90;;;;;;;-0.13;95.28;102048.72;7397616;19;20010;-68
2021/12/21 03:25:21;;;;;;;23.67;12.02;;;;;;;-0.13;95.31;102043.56;7395030;19;20010;-68
2021/12/21 03:27:49;;;;;;;30.38;12.05;;;;;;;-0.15;95.14;102052.06;7395267;19;20010;-67
2021/12/21 03:30:18;;;;;;;22.65;11.77;;;;;;;-0.13;95.30;102055.59;7394649;19;20500;-68
2021/12/21 03:32:47;;;;;;;21.30;11.50;;;;;;;-0.14;95.08;102051.25;7396438;19;20014;-67
2021/12/21 03:35:15;;;;;;;24.63;11.13;;;;;;;-0.15;95.26;102052.94;7393567;19;20023;-68
2021/12/21 03:37:44;;;;;;;23.83;11.30;;;;;;;-0.15;94.96;102059.78;7394578;19;20022;-67
2021/12/21 03:40:13;;;;;;;20.45;12.30;;;;;;;-0.19;95.04;102048.47;7396282;19;20023;-68
2021/12/21 03:42:44;;;;;;;19.45;12.30;;;;;;;-0.20;94.99;102054.47;7394623;19;20014;-68
2021/12/21 03:45:12;;;;;;;28.13;12.00;;;;;;;-0.22;95.24;102051.78;7395421;19;20027;-68
2021/12/21 03:47:40;;;;;;;21.20;11.45;;;;;;;-0.23;94.79;102054.31;7395179;19;20035;-67
2021/12/21 03:50:16;;;;;;;26.92;12.88;;;;;;;-0.26;94.59;102044.75;7396069;19;20402;-68
2021/12/21 03:52:44;;;;;;;31.13;15.02;;;;;;;-0.25;94.99;102043.03;7396099;19;20078;-68
2021/12/21 03:55:12;;;;;;;26.63;12.38;;;;;;;-0.27;94.87;102045.53;7394790;19;20031;-68
2021/12/21 03:57:43;;;;;;;25.83;12.07;;;;;;;-0.27;95.08;102050.69;7395750;19;20018;-68
2021/12/21 04:00:16;;;;;;;23.98;12.07;;;;;;;-0.34;94.69;102043.53;7395566;19;20363;-68
2021/12/21 04:02:44;;;;;;;21.17;10.98;;;;;;;-0.30;94.93;102044.53;7396088;19;20010;-68
2021/12/21 04:05:12;;;;;;;24.08;12.18;;;;;;;-0.30;94.97;102040.25;7394684;19;20036;-67
2021/12/21 04:07:41;;;;;;;22.25;11.85;;;;;;;-0.29;94.86;102052.34;7393267;19;20483;-67
2021/12/21 04:10:10;;;;;;;18.92;11.25;;;;;;;-0.28;95.08;102048.06;7394965;19;20479;-68
2021/12/21 04:12:38;;;;;;;19.42;10.10;;;;;;;-0.28;95.03;102056.66;7393754;19;20022;-67
2021/12/21 04:15:12;;;;;;;22.45;10.60;;;;;;;-0.30;94.90;102049.69;7394451;19;20025;-68
2021/12/21 04:17:40;;;;;;;;;;;;;;;-0.31;94.43;102048.81;7396860;19;20032;-67
2021/12/21 04:20:10;;;;;;;19.55;10.98;;;;;;;-0.35;95.20;102045.22;7395357;19;19927;-68
2021/12/21 04:22:38;;;;;;;27.77;13.32;;;;;;;-0.31;95.18;102050.53;7393074;19;20377;-67
2021/12/21 04:25:08;;;;;;;21.92;10.82;;;;;;;-0.31;95.01;102048.81;7392741;19;20023;-67
2021/12/21 04:27:36;;;;;;;20.80;12.32;;;;;;;-0.31;95.17;102046.22;7394172;19;20007;-67
2021/12/21 04:30:04;;;;;;;27.85;12.18;;;;;;;-0.29;95.29;102046.28;7392664;19;20480;-67
2021/12/21 04:32:35;;;;;;;22.73;11.50;;;;;;;-0.29;95.05;102052.34;7393115;19;20023;-68
2021/12/21 04:35:03;;;;;;;23.25;11.85;;;;;;;-0.30;94.86;102045.44;7393252;19;20500;-69
2021/12/21 04:37:35;;;;;;;24.45;12.20;;;;;;;-0.29;94.60;102046.28;7392233;19;20403;-67
2021/12/21 04:40:06;;;;;;;28.42;11.93;;;;;;;-0.31;94.49;102038.50;7394890;19;20030;-68
2021/12/21 04:42:34;;;;;;;30.25;12.80;;;;;;;-0.33;94.70;102032.38;7394539;19;20014;-67
2021/12/21 04:45:02;;;;;;;21.88;12.82;;;;;;;-0.33;94.52;102029.81;7393463;19;20018;-67
2021/12/21 04:47:31;;;;;;;26.80;11.35;;;;;;;-0.32;94.67;102035.84;7395325;19;20014;-67
2021/12/21 04:50:01;;;;;;;21.55;11.00;;;;;;;-0.41;94.36;102039.78;7399223;19;20014;-67
2021/12/21 04:52:29;;;;;;;24.33;11.82;;;;;;;-0.35;94.55;102032.31;7402069;19;20019;-67
2021/12/21 04:54:58;;;;;;;25.35;12.40;;;;;;;-0.35;94.17;102040.06;7400274;19;20035;-67
2021/12/21 04:57:26;;;;;;;21.45;12.55;;;;;;;-0.36;94.51;102035.72;7401521;19;20019;-67
2021/12/21 04:59:54;;;;;;;21.98;12.93;;;;;;;-0.36;94.05;102037.41;7400769;19;20496;-66
2021/12/21 05:02:23;;;;;;;26.15;12.88;;;;;;;-0.37;94.34;102039.13;7401437;19;20014;-66
2021/12/21 05:04:52;;;;;;;26.80;12.27;;;;;;;-0.39;94.19;102029.53;7398679;19;20021;-68
2021/12/21 05:07:26;;;;;;;29.73;13.98;;;;;;;-0.39;94.02;102032.09;7400726;19;20534;-67
2021/12/21 05:09:57;;;;;;;27.15;14.93;;;;;;;-0.39;94.39;102030.44;7401430;19;20074;-67
2021/12/21 05:12:26;;;;;;;23.83;13.98;;;;;;;-0.40;93.95;102028.66;7401901;19;20032;-67
2021/12/21 05:14:54;;;;;;;25.48;15.10;;;;;;;-0.42;93.91;102032.00;7399572;19;20035;-67
2021/12/21 05:17:23;;;;;;;27.48;14.05;;;;;;;-0.43;93.71;102027.63;7398176;19;20039;-67
2021/12/21 05:19:51;;;;;;;25.13;14.68;;;;;;;-0.43;93.74;102037.94;7400227;19;20026;-67
2021/12/21 05:22:19;;;;;;;25.65;14.75;;;;;;;-0.44;94.01;102033.59;7400537;19;20393;-68
2021/12/21 05:24:50;;;;;;;24.38;15.95;;;;;;;-0.48;93.10;102036.88;7397558;19;20035;-68
2021/12/21 05:27:19;;;;;;;27.10;15.50;;;;;;;-0.50;93.36;102039.38;7400869;19;20021;-66
2021/12/21 05:29:48;;;;;;;27.20;14.48;;;;;;;-0.51;93.70;102027.31;7400602;19;20387;-66
2021/12/21 05:32:16;;;;;;;30.20;15.60;;;;;;;-0.54;93.57;102040.94;7397646;19;20023;-67
2021/12/21 05:34:44;;;;;;;25.13;15.18;;;;;;;-0.59;93.16;102039.84;7397701;19;20014;-68
2021/12/21 05:37:12;;;;;;;26.00;15.02;;;;;;;-0.61;93.48;102028.59;7397971;19;20018;-68
2021/12/21 05:39:53;;;;;;;29.20;15.25;;;;;;;-0.59;93.75;102036.41;7400186;19;20011;-67
2021/12/21 05:42:24;;;;;;;32.67;16.02;;;;;;;-0.60;93.58;102032.06;7400451;19;20022;-67
2021/12/21 05:44:53;;;;;;;26.17;15.90;;;;;;;-0.59;94.10;102034.69;7398812;19;20369;-67
2021/12/21 05:47:21;;;;;;;28.63;15.10;;;;;;;-0.59;94.17;102033.84;7399289;19;20035;-67
2021/12/21 05:49:49;;;;;;;25.15;15.45;;;;;;;-0.59;94.10;102033.84;7397084;19;20483;-67
2021/12/21 05:52:18;;;;;;;29.98;15.70;;;;;;;-0.61;94.33;102038.91;7399372;19;20018;-68
2021/12/21 05:54:46;;;;;;;27.95;16.23;;;;;;;-0.60;94.13;102048.41;7398596;19;20026;-67
2021/12/21 05:57:14;;;;;;;27.30;16.20;;;;;;;-0.60;94.39;102052.69;7397508;19;20022;-67
2021/12/21 05:59:45;;;;;;;27.27;16.15;;;;;;;-0.59;94.50;102050.16;7396715;19;20018;-67
2021/12/21 06:02:13;;;;;;;32.10;16.00;;;;;;;-0.60;94.29;102048.41;7400675;19;20032;-67
2021/12/21 06:04:41;;;;;;;38.03;17.08;;;;;;;-0.59;94.39;102055.31;7397496;19;20031;-68
2021/12/21 06:07:09;;;;;;;27.38;15.38;;;;;;;-0.59;94.69;102050.16;7399715;19;20035;-67
2021/12/21 06:09:38;;;;;;;30.80;16.88;;;;;;;-0.58;94.37;102044.22;7396270;19;20389;-67
2021/12/21 06:12:13;;;;;;;26.45;15.05;;;;;;;-0.57;94.31;102042.50;7396460;19;20086;-68
2021/12/21 06:15:15;;;;;;;27.88;16.77;;;;;;;-0.58;93.98;102049.38;7398174;19;20022;-67
2021/12/21 06:23:32;;;;;;;40.13;17.88;;;;;;;-0.61;94.49;102051.78;7398674;19;20017;-66
2021/12/21 06:26:01;;;;;;;32.17;17.95;;;;;;;-0.61;94.17;102051.78;7395986;19;20017;-66
2021/12/21 06:28:29;;;;;;;30.73;17.70;;;;;;;-0.63;94.14;102053.44;7397344;19;20011;-67
2021/12/21 06:30:58;;;;;;;30.92;18.00;;;;;;;-0.61;94.21;102050.91;7395866;19;20455;-67
2021/12/21 06:33:29;;;;;;;28.70;18.35;;;;;;;-0.63;93.86;102053.44;7396288;19;20035;-67
2021/12/21 06:35:58;;;;;;;36.28;18.25;;;;;;;-0.63;94.45;102048.28;7396240;19;20018;-67
2021/12/21 06:38:26;;;;;;;30.02;17.55;;;;;;;-0.61;94.19;102048.34;7397761;19;20032;-68
2021/12/21 06:40:55;;;;;;;37.33;20.88;;;;;;;-0.59;94.47;102052.75;7395638;19;20022;-66
2021/12/21 06:43:24;;;;;;;30.60;21.25;;;;;;;-0.58;94.76;102048.47;7395357;19;20440;-66
2021/12/21 06:45:59;;;;;;;46.17;26.25;;;;;;;-0.56;94.88;102046.84;7395500;19;20325;-67
2021/12/21 06:51:16;;;;;;;33.15;19.45;;;;;;;-0.59;94.30;102045.00;7397297;19;20384;-67
2021/12/21 06:53:47;;;;;;;32.03;19.30;;;;;;;-0.55;94.39;102058.94;7396170;19;20044;-67
2021/12/21 06:56:15;;;;;;;31.73;17.42;;;;;;;-0.55;94.40;102058.94;7398116;19;20035;-67
2021/12/21 06:58:44;;;;;;;38.30;18.60;;;;;;;-0.57;94.06;102058.88;7395669;19;20031;-66
2021/12/21 07:01:13;;;;;;;33.85;17.77;;;;;;;-0.57;94.23;102066.59;7397016;19;20019;-68
2021/12/21 07:03:45;;;;;;;31.08;18.13;;;;;;;-0.58;94.47;102054.53;7397022;19;20018;-67
2021/12/21 07:06:16;;;;;;;29.08;17.95;;;;;;;-0.57;94.49;102060.53;7396633;19;20471;-68
2021/12/21 07:08:53;;;;;;;31.77;18.75;;;;;;;-0.56;94.81;102068.34;7396093;19;20018;-67
2021/12/21 07:11:27;;;;;;;36.13;19.27;;;;;;;-0.55;94.70;102059.78;7394036;19;20014;-69
2021/12/21 07:19:20;;;;;;;35.25;19.20;;;;;;;-0.50;94.80;102068.63;7396795;19;20023;-68
2021/12/21 07:21:48;;;;;;;31.13;19.65;;;;;;;-0.48;95.00;102065.22;7397023;19;20035;-67
2021/12/21 07:24:16;;;;;;;38.03;19.70;;;;;;;-0.47;94.92;102078.19;7396540;19;20015;-68
2021/12/21 07:26:45;;;;;;;37.40;20.48;;;;;;;-0.47;95.25;102073.03;7393415;19;20094;-67
2021/12/21 07:29:13;;;;;;;33.25;18.65;;;;;;;-0.44;94.83;102077.44;7393586;19;20044;-67
2021/12/21 07:31:41;;;;;;;41.85;21.05;;;;;;;-0.44;94.77;102072.28;7394488;19;20032;-67
2021/12/21 07:34:10;;;;;;;36.30;20.02;;;;;;;-0.44;94.68;102083.50;7395312;19;20469;-67
2021/12/21 07:36:43;;;;;;;34.60;20.73;;;;;;;-0.43;94.93;102080.09;7396170;19;20042;-67
2021/12/21 07:39:20;;;;;;;35.45;19.05;;;;;;;-0.41;94.86;102081.03;7394823;19;20019;-67
2021/12/21 07:41:48;;;;;;;31.20;19.85;;;;;;;-0.39;95.14;102084.59;7394685;19;20019;-67
2021/12/21 07:44:16;;;;;;;33.67;19.05;;;;;;;-0.40;94.94;102082.81;7394195;19;20022;-67
2021/12/21 07:46:45;;;;;;;35.25;17.85;;;;;;;-0.35;95.12;102086.47;7396174;19;20018;-66
2021/12/21 07:49:13;;;;;;;30.98;17.35;;;;;;;-0.34;94.58;102087.38;7394729;19;20022;-67
2021/12/21 07:51:45;;;;;;;35.42;17.67;;;;;;;-0.35;94.77;102086.47;7394171;19;20039;-67
2021/12/21 07:54:13;;;;;;;28.83;17.00;;;;;;;-0.32;94.80;102092.59;7394456;19;20018;-68
2021/12/21 07:56:41;;;;;;;32.15;16.17;;;;;;;-0.30;94.57;102101.25;7393996;19;20019;-67
2021/12/21 07:59:11;;;;;;;32.42;16.27;;;;;;;-0.29;94.08;102101.34;7395512;19;20031;-68
2021/12/21 08:01:40;;;;;;;30.08;17.45;;;;;;;-0.30;93.40;102104.75;7393747;19;20078;-67
2021/12/21 08:04:09;;;;;;;29.67;15.98;;;;;;;-0.29;93.95;102100.47;7394964;19;20027;-68
2021/12/21 08:06:39;;;;;;;27.40;15.88;;;;;;;-0.30;93.78;102102.16;7395051;19;20035;-67
2021/12/21 08:09:10;;;;;;;26.88;15.90;;;;;;;-0.30;93.39;102103.84;7393668;19;20472;-68
2021/12/21 08:14:19;;;;;;;28.08;15.88;;;;;;;-0.29;93.17;102108.19;7394345;19;20015;-68
2021/12/21 08:16:47;;;;;;;34.72;17.65;;;;;;;-0.30;93.47;102112.47;7394580;19;20035;-68
2021/12/21 08:19:15;;;;;;;28.02;16.55;;;;;;;-0.29;93.84;102111.69;7393412;19;20036;-68
2021/12/21 08:21:50;;;;;;;28.88;16.17;;;;;;;-0.26;93.57;102106.63;7393120;19;20028;-68
2021/12/21 08:24:21;;;;;;;;;;;;;;;-0.26;92.40;102103.19;7401038;19;20023;-68
2021/12/21 08:26:49;;;;;;;32.35;16.10;;;;;;;-0.26;93.41;102104.06;7400152;19;19914;-68
2021/12/21 08:29:17;;;;;;;28.13;16.58;;;;;;;-0.23;93.89;102105.88;7400490;19;20451;-69
2021/12/21 08:31:46;;;;;;;34.58;16.42;;;;;;;-0.20;94.12;102099.19;7399016;19;20044;-68
2021/12/21 08:34:15;;;;;;;32.70;17.98;;;;;;;-0.18;93.43;102094.06;7398883;19;20019;-67
2021/12/21 08:36:43;;;;;;;33.20;17.48;;;;;;;-0.15;93.24;102106.22;7399021;19;20011;-67
2021/12/21 08:39:12;;;;;;;27.90;16.23;;;;;;;-0.19;92.50;102100.03;7399030;19;20019;-68
2021/12/21 08:41:43;;;;;;;33.05;17.95;;;;;;;-0.22;93.23;102093.06;7402110;19;20031;-67
2021/12/21 08:44:20;;;;;;;37.17;18.08;;;;;;;-0.17;93.23;102106.16;7402392;19;20425;-67
2021/12/21 08:46:48;;;;;;;33.20;16.95;;;;;;;-0.12;93.83;102102.09;7402088;19;20023;-67
2021/12/21 08:49:16;;;;;;;32.17;17.25;;;;;;;-0.10;93.38;102099.56;7398267;19;20479;-67
2021/12/21 08:51:44;;;;;;;35.33;17.48;;;;;;;-0.10;92.08;102110.78;7399969;19;20039;-67
2021/12/21 08:54:13;;;;;;;31.98;18.00;;;;;;;-0.07;93.47;102112.63;7400980;19;20018;-67
2021/12/21 08:56:44;;;;;;;30.00;16.73;;;;;;;-0.05;93.40;102101.56;7401281;19;20025;-67
2021/12/21 08:59:15;;;;;;;30.00;16.00;;;;;;;0.02;93.65;102104.41;7398741;19;20022;-67
2021/12/21 09:01:43;;;;;;;30.60;17.58;;;;;;;0.07;93.48;102103.78;7398838;19;20023;-67
2021/12/21 09:04:14;;;;;;;27.45;15.82;;;;;;;0.13;93.89;102098.88;7400549;19;20019;-67
2021/12/21 09:06:42;;;;;;;31.65;18.23;;;;;;;0.20;93.49;102099.16;7398968;19;20026;-68
2021/12/21 09:09:10;;;;;;;29.33;17.38;;;;;;;0.24;93.62;102104.50;7400106;19;20018;-68
2021/12/21 09:11:40;;;;;;;79.35;39.65;;;;;;;0.32;93.54;102103.13;7401042;19;20049;-67
2021/12/21 09:14:10;;;;;;;28.45;17.02;;;;;;;0.39;93.58;102105.97;7400542;19;20037;-67
2021/12/21 09:16:39;;;;;;;32.20;16.75;;;;;;;0.44;93.33;102107.94;7398023;19;20582;-67
2021/12/21 09:19:07;;;;;;;31.98;16.02;;;;;;;0.53;93.35;102114.28;7397778;19;20019;-67
2021/12/21 09:21:35;;;;;;;32.83;17.52;;;;;;;0.58;93.17;102120.53;7400707;19;20027;-68
2021/12/21 09:24:03;;;;;;;28.05;15.98;;;;;;;0.60;91.91;102126.66;7401099;19;20417;-67
2021/12/21 09:26:31;;;;;;;28.33;15.88;;;;;;;0.60;91.76;102122.34;7398566;19;20475;-67
2021/12/21 09:28:59;;;;;;;34.38;16.33;;;;;;;0.60;91.52;102124.06;7399545;19;20023;-67
2021/12/21 09:31:30;;;;;;;34.45;16.25;;;;;;;0.59;91.48;102127.47;7400325;19;20031;-68
2021/12/21 09:33:58;;;;;;;36.20;17.70;;;;;;;0.54;91.65;102126.38;7397102;19;20035;-67
2021/12/21 09:36:28;;;;;;;32.30;17.55;;;;;;;0.56;91.75;102125.63;7399615;19;20500;-68
2021/12/21 09:38:57;;;;;;;34.70;17.98;;;;;;;0.53;92.45;102119.44;7399768;19;20483;-66
2021/12/21 09:41:25;;;;;;;31.67;18.52;;;;;;;0.57;92.69;102121.34;7397701;19;20027;-67
2021/12/21 09:43:53;;;;;;;28.33;15.98;;;;;;;0.62;92.72;102128.47;7399782;19;20031;-67
2021/12/21 09:46:22;;;;;;;31.30;16.52;;;;;;;0.64;92.65;102124.25;7397375;19;20018;-67
2021/12/21 09:48:52;;;;;;;35.08;18.15;;;;;;;0.68;92.75;102125.25;7397581;19;20022;-67
2021/12/21 09:51:21;;;;;;;30.17;17.00;;;;;;;0.72;92.42;102122.00;7400294;19;20039;-68
2021/12/21 09:53:50;;;;;;;29.77;17.60;;;;;;;0.74;92.31;102120.34;7399520;19;20026;-68
2021/12/21 09:56:19;;;;;;;34.33;17.75;;;;;;;0.76;92.20;102120.41;7399448;19;20361;-69
2021/12/21 09:58:47;;;;;;;32.13;17.52;;;;;;;0.76;91.53;102118.69;7399527;19;20021;-68
2021/12/21 10:01:18;;;;;;;31.40;16.65;;;;;;;0.76;91.38;102125.59;7399497;19;20040;-69
2021/12/21 10:03:47;;;;;;;31.75;18.08;;;;;;;0.76;91.91;102118.69;7399564;19;20014;-68
2021/12/21 10:06:18;;;;;;;40.63;18.05;;;;;;;0.77;91.31;102125.63;7396707;19;20022;-66
2021/12/21 10:08:46;;;;;;;33.53;18.55;;;;;;;0.77;91.71;102129.91;7398931;19;20010;-68
2021/12/21 10:11:21;;;;;;;31.00;18.13;;;;;;;0.77;91.12;102122.16;7396435;19;20022;-67
2021/12/21 10:13:51;;;;;;;30.00;17.90;;;;;;;0.76;90.91;102117.84;7398620;19;20022;-67
2021/12/21 10:16:22;;;;;;;34.20;17.73;;;;;;;0.74;91.06;102120.34;7397801;19;20019;-67
2021/12/21 10:18:50;;;;;;;25.85;17.15;;;;;;;0.73;91.16;102121.16;7398860;19;20018;-68
2021/12/21 10:21:21;;;;;;;45.50;20.42;;;;;;;0.70;90.93;102120.16;7398641;19;20035;-68
2021/12/21 10:23:52;;;;;;;31.65;17.25;;;;;;;0.65;90.70;102114.78;7396905;19;20487;-69
2021/12/21 10:26:23;;;;;;;33.70;18.58;;;;;;;0.58;89.46;102118.84;7398347;19;20011;-68
2021/12/21 10:28:53;;;;;;;32.58;17.13;;;;;;;0.52;90.38;102118.59;7397564;19;20027;-68
2021/12/21 10:31:27;;;;;;;31.85;17.30;;;;;;;0.48;90.66;102111.50;7398667;19;20036;-68
2021/12/21 10:33:56;;;;;;;;;;;;;;;0.43;88.83;102111.34;7398116;19;20482;-66
2021/12/21 10:36:29;;;;;;;24.70;15.55;;;;;;;0.42;90.35;102108.69;7398167;19;19978;-66
2021/12/21 10:38:59;;;;;;;31.25;18.25;;;;;;;0.43;91.42;102106.16;7395861;19;20386;-67
2021/12/21 10:41:33;;;;;;;34.42;17.52;;;;;;;0.45;90.68;102101.94;7397717;19;20385;-67
2021/12/21 10:44:04;;;;;;;36.13;19.00;;;;;;;0.48;91.00;102102.06;7396156;19;20018;-66
2021/12/21 10:46:35;;;;;;;37.58;18.70;;;;;;;0.55;91.00;102105.78;7395751;19;20018;-68
2021/12/21 10:49:09;;;;;;;31.95;19.67;;;;;;;0.62;91.67;102110.38;7397323;19;20018;-68
2021/12/21 10:51:53;;;;;;;33.50;17.92;;;;;;;0.70;91.46;102097.78;7396297;19;20023;-67
2021/12/21 10:54:29;;;;;;;39.05;19.85;;;;;;;0.70;89.66;102102.94;7396334;19;20018;-68
2021/12/21 10:57:01;;;;;;;30.20;18.00;;;;;;;0.72;91.19;102096.16;7398326;19;20027;-67
2021/12/21 10:59:34;;;;;;;32.55;17.63;;;;;;;0.71;89.92;102091.81;7397704;19;20021;-68
2021/12/21 11:02:11;;;;;;;36.88;19.15;;;;;;;0.71;90.05;102094.38;7397574;19;20026;-68
2021/12/21 11:04:41;;;;;;;28.25;17.38;;;;;;;0.73;90.28;102102.19;7396598;19;20094;-67
2021/12/21 11:07:29;;;;;;;29.95;17.45;;;;;;;0.74;90.54;102093.63;7396912;19;20026;-68
2021/12/21 11:09:59;;;;;;;37.22;18.90;;;;;;;0.75;90.28;102101.44;7395484;19;20086;-68
2021/12/21 11:12:29;;;;;;;36.40;18.98;;;;;;;0.72;90.30;102095.25;7395224;19;20032;-67
2021/12/21 11:15:00;;;;;;;34.78;19.58;;;;;;;0.71;91.18;102089.22;7394901;19;20036;-67
2021/12/21 11:17:28;;;;;;;37.42;19.95;;;;;;;0.76;90.72;102092.88;7395506;19;20040;-67
2021/12/21 11:19:56;;;;;;;30.95;18.63;;;;;;;0.78;91.31;102088.66;7396892;19;20031;-68
2021/12/21 11:22:28;;;;;;;34.88;19.23;;;;;;;0.83;91.29;102087.94;7394768;19;20019;-67
2021/12/21 11:24:57;;;;;;;36.88;20.05;;;;;;;0.86;91.59;102088.97;7395980;19;20040;-69
2021/12/21 11:27:28;;;;;;;37.15;18.75;;;;;;;0.88;90.37;102099.34;7394946;19;20010;-69
2021/12/21 11:30:01;;;;;;;40.55;22.38;;;;;;;0.85;90.59;102088.88;7394873;19;20425;-67
2021/12/21 11:32:32;;;;;;;34.88;18.83;;;;;;;0.85;90.87;102084.59;7396396;19;20572;-68
2021/12/21 11:37:20;;;;;;;34.05;18.05;;;;;;;0.87;91.47;102077.78;7394904;19;20033;-68
2021/12/21 11:38:00;;;;;;;32.53;18.05;;;;;;;0.91;91.38;102079.69;7394863;19;20022;-66
2021/12/21 11:40:32;;;;;;;33.97;17.92;;;;;;;0.93;91.25;102072.84;7395070;19;20033;-68
2021/12/21 11:43:12;;;;;;;27.33;16.38;;;;;;;0.95;90.82;102073.81;7396363;19;20014;-65
2021/12/21 11:45:47;;;;;;;36.78;19.48;;;;;;;0.98;90.78;102070.47;7393852;19;20155;-67
2021/12/21 11:48:23;;;;;;;32.38;16.67;;;;;;;1.00;90.71;102075.69;7395802;19;20031;-68
2021/12/21 11:50:51;;;;;;;29.50;16.13;;;;;;;1.02;91.25;102072.31;7394082;19;20022;-69
2021/12/21 11:53:22;;;;;;;32.40;17.27;;;;;;;1.04;90.46;102075.88;7393930;19;20015;-68
2021/12/21 11:55:52;;;;;;;29.63;16.90;;;;;;;1.06;90.44;102073.34;7393451;19;20413;-69
2021/12/21 11:58:24;;;;;;;30.48;18.52;;;;;;;1.03;90.18;102071.50;7393761;19;20022;-68
2021/12/21 12:00:56;;;;;;;30.65;17.73;;;;;;;1.04;90.82;102065.53;7394198;19;20081;-69